Time;durP1;ratioP1;P1;durP2;ratioP2;P2;SDS_P1;SDS_P2;PMS_P1;PMS_P2;Temp;Humidity;BMP_temperature;BMP_pressure;BME280_temperature;BME280_humidity;BME280_pressure;Samples;Min_cycle;Max_cycle;Signal;HPM_P1;HPM_P2
2023/05/20 00:01:30;;;;;;;167.73;59.55;;;;;;;17.02;42.58;102569.91;5065059;28;20477;-70
2023/05/20 00:03:56;;;;;;;168.15;59.85;;;;;;;17.02;42.45;102567.25;5047064;28;20065;-70
2023/05/20 00:06:22;;;;;;;163.52;59.78;;;;;;;17.01;42.81;102565.50;5051901;28;20094;-70
2023/05/20 00:08:47;;;;;;;161.48;58.50;;;;;;;17.00;42.43;102563.75;5051380;28;20135;-70
2023/05/20 00:11:12;;;;;;;163.20;59.70;;;;;;;16.99;42.48;102572.59;5053613;28;20098;-70
2023/05/20 00:13:38;;;;;;;162.95;58.78;;;;;;;16.99;42.91;102572.59;5033232;28;20111;-70
2023/05/20 00:16:04;;;;;;;156.65;58.25;;;;;;;16.99;42.52;102581.38;5056951;28;20025;-70
2023/05/20 00:18:29;;;;;;;164.63;59.80;;;;;;;16.99;42.25;102572.59;5051835;28;20028;-70
2023/05/20 00:20:55;;;;;;;160.70;59.20;;;;;;;16.97;42.54;102575.22;5068851;28;20500;-70
2023/05/20 00:23:20;;;;;;;159.45;58.72;;;;;;;16.98;42.52;102584.03;5049013;28;20031;-70
2023/05/20 00:25:45;;;;;;;167.38;59.85;;;;;;;16.98;42.99;102576.97;5052135;28;20021;-70
2023/05/20 00:28:11;;;;;;;170.60;60.33;;;;;;;16.97;42.79;102579.63;5052569;28;20174;-70
2023/05/20 00:30:40;;;;;;;164.85;59.72;;;;;;;16.96;42.57;102577.88;5051888;28;20103;-70
2023/05/20 00:33:05;;;;;;;165.20;59.65;;;;;;;16.96;42.91;102578.78;5076425;28;20053;-70
2023/05/20 00:35:30;;;;;;;163.52;59.33;;;;;;;16.94;42.82;102583.19;5043192;28;20308;-70
2023/05/20 00:37:55;;;;;;;163.75;60.30;;;;;;;16.94;43.01;102580.53;5041108;28;20114;-70
2023/05/20 00:40:22;;;;;;;163.60;59.30;;;;;;;16.94;42.92;102577.91;5081228;28;20111;-70
2023/05/20 00:42:47;;;;;;;161.18;59.20;;;;;;;16.94;42.75;102580.53;5052646;28;20473;-70
2023/05/20 00:45:12;;;;;;;155.63;57.20;;;;;;;16.93;42.63;102576.16;5033772;28;20013;-70
2023/05/20 00:47:38;;;;;;;167.65;60.95;;;;;;;16.93;42.79;102572.66;5033750;28;20159;-70
2023/05/20 00:50:04;;;;;;;163.15;59.58;;;;;;;16.93;43.05;102577.94;5056257;28;20134;-70
2023/05/20 00:52:31;;;;;;;163.15;59.65;;;;;;;16.92;42.79;102571.78;5068796;28;20032;-70
2023/05/20 00:54:57;;;;;;;166.15;60.97;;;;;;;16.92;43.00;102569.16;5071536;28;20067;-70
2023/05/20 00:57:23;;;;;;;165.85;59.83;;;;;;;16.90;42.77;102563.84;5054469;28;20021;-70
2023/05/20 00:59:48;;;;;;;166.52;59.72;;;;;;;16.91;42.89;102567.41;5051742;28;20330;-70
2023/05/20 01:02:14;;;;;;;166.52;60.22;;;;;;;16.90;42.82;102568.28;5053513;28;20482;-70
2023/05/20 01:04:45;;;;;;;155.70;58.15;;;;;;;16.90;43.09;102574.41;5070625;28;20127;-70
2023/05/20 01:07:11;;;;;;;163.82;59.00;;;;;;;16.89;42.68;102562.13;5030306;28;20112;-70
2023/05/20 01:09:38;;;;;;;170.52;60.65;;;;;;;16.89;43.09;102567.41;5063679;28;20390;-70
2023/05/20 01:12:12;;;;;;;162.70;59.08;;;;;;;16.89;43.10;102566.53;5057950;28;20094;-70
2023/05/20 01:15:02;;;;;;;172.38;57.83;;;;;;;16.89;42.98;102566.53;5063949;22;20047;-72
2023/05/20 01:17:31;;;;;;;158.13;56.72;;;;;;;16.88;43.07;102564.78;5048744;28;20032;-71
2023/05/20 01:19:58;;;;;;;172.70;58.03;;;;;;;16.87;42.46;102563.00;5033219;28;20017;-71
2023/05/20 01:22:28;;;;;;;162.27;56.83;;;;;;;16.87;42.69;102565.66;5027055;28;20025;-71
2023/05/20 01:24:53;;;;;;;160.73;55.65;;;;;;;16.88;43.40;102564.78;5018533;28;20033;-72
2023/05/20 01:27:21;;;;;;;173.57;58.50;;;;;;;16.87;42.86;102560.38;5013961;28;20025;-71
2023/05/20 01:29:49;;;;;;;149.90;54.80;;;;;;;16.86;43.15;102561.25;5021614;28;20056;-72
2023/05/20 01:32:19;;;;;;;155.95;55.92;;;;;;;16.86;43.04;102561.25;5030928;28;20020;-72
2023/05/20 01:34:47;;;;;;;160.65;56.50;;;;;;;16.85;42.91;102564.78;5043049;28;20059;-71
2023/05/20 01:37:12;;;;;;;158.38;56.67;;;;;;;16.85;42.87;102559.50;5008962;28;20486;-72
2023/05/20 01:39:40;;;;;;;161.20;56.42;;;;;;;16.84;42.74;102563.06;5014462;28;20043;-72
2023/05/20 01:42:06;;;;;;;176.05;58.78;;;;;;;16.83;42.75;102562.16;5034441;28;20550;-72
2023/05/20 01:44:32;;;;;;;159.48;56.28;;;;;;;16.84;42.95;102558.66;5018131;28;20120;-71
2023/05/20 01:46:58;;;;;;;164.18;57.67;;;;;;;16.84;43.17;102560.44;5033537;28;20095;-72
2023/05/20 01:49:24;;;;;;;161.23;56.85;;;;;;;16.83;42.72;102561.31;5030872;28;20044;-72
2023/05/20 01:51:49;;;;;;;161.30;56.90;;;;;;;16.82;43.27;102562.19;5052289;28;20461;-71
2023/05/20 01:54:14;;;;;;;197.10;62.97;;;;;;;16.82;42.73;102564.84;5015490;28;20020;-71
2023/05/20 01:56:40;;;;;;;159.40;56.45;;;;;;;16.82;43.25;102559.56;5023002;28;20108;-71
2023/05/20 01:59:05;;;;;;;155.68;55.10;;;;;;;16.80;43.08;102558.72;5018098;28;20052;-71
2023/05/20 02:01:31;;;;;;;158.32;56.85;;;;;;;16.81;43.07;102568.34;5026942;28;20029;-71
2023/05/20 02:03:56;;;;;;;158.30;56.05;;;;;;;16.81;42.98;102563.06;5034615;28;20042;-72
2023/05/20 02:06:21;;;;;;;177.95;60.00;;;;;;;16.80;43.25;102561.34;5015998;28;20029;-71
2023/05/20 02:08:46;;;;;;;153.48;55.65;;;;;;;16.80;43.41;102558.72;5047989;28;20592;-71
2023/05/20 02:11:12;;;;;;;165.43;57.55;;;;;;;16.79;43.54;102554.31;5033978;28;20064;-71
2023/05/20 02:13:38;;;;;;;159.13;56.55;;;;;;;16.79;43.42;102549.03;5043445;28;20025;-72
2023/05/20 02:16:03;;;;;;;160.13;56.15;;;;;;;16.78;43.60;102550.78;5016748;28;20502;-72
2023/05/20 02:18:29;;;;;;;160.82;57.95;;;;;;;16.78;43.04;102553.44;5033178;28;20017;-71
2023/05/20 02:20:54;;;;;;;159.40;56.80;;;;;;;16.77;43.62;102551.72;5012827;28;20025;-72
2023/05/20 02:23:19;;;;;;;163.55;57.60;;;;;;;16.77;43.58;102548.19;5052002;28;20017;-71
2023/05/20 02:25:45;;;;;;;172.63;58.35;;;;;;;16.75;43.86;102549.97;5032915;28;20025;-71
2023/05/20 02:28:10;;;;;;;153.20;55.38;;;;;;;16.76;43.99;102551.72;5049581;28;20036;-71
2023/05/20 02:30:39;;;;;;;158.68;56.22;;;;;;;16.75;43.45;102548.19;5034255;28;20070;-71
2023/05/20 02:33:05;;;;;;;158.10;56.33;;;;;;;16.74;44.19;102538.53;5029356;28;20029;-72
2023/05/20 02:35:31;;;;;;;158.35;56.50;;;;;;;16.75;43.82;102544.69;5033603;28;20021;-71
2023/05/20 02:37:56;;;;;;;191.45;61.60;;;;;;;16.75;43.72;102539.44;5023600;28;20039;-71
2023/05/20 02:40:21;;;;;;;159.95;56.55;;;;;;;16.74;44.10;102538.53;5026621;28;20028;-71
2023/05/20 02:42:47;;;;;;;166.70;57.42;;;;;;;16.72;43.90;102533.28;5051497;28;20024;-72
2023/05/20 02:45:12;;;;;;;167.05;57.40;;;;;;;16.71;43.95;102525.38;5025392;28;20037;-71
2023/05/20 02:47:37;;;;;;;156.07;56.15;;;;;;;16.72;44.10;102538.56;5032740;28;20063;-71
2023/05/20 02:50:03;;;;;;;159.20;57.83;;;;;;;16.71;43.83;102535.94;5009427;28;20043;-72
2023/05/20 02:52:28;;;;;;;162.13;57.92;;;;;;;16.70;43.48;102535.06;5033497;28;20033;-72
2023/05/20 02:54:55;;;;;;;158.02;56.33;;;;;;;16.70;44.08;102532.44;5033532;28;20057;-72
2023/05/20 02:57:20;;;;;;;156.65;56.40;;;;;;;16.69;43.77;102533.31;5050061;28;20466;-72
2023/05/20 02:59:46;;;;;;;161.48;57.50;;;;;;;16.69;43.77;102538.59;5033139;28;20078;-71
2023/05/20 03:02:11;;;;;;;173.90;58.70;;;;;;;16.69;43.97;102538.59;5048893;28;20054;-72
2023/05/20 03:04:39;;;;;;;154.95;55.80;;;;;;;16.69;44.09;102549.16;5027464;28;20100;-71
2023/05/20 03:07:08;;;;;;;159.60;56.40;;;;;;;16.68;44.22;102546.53;5032704;28;20025;-72
2023/05/20 03:09:33;;;;;;;161.85;56.50;;;;;;;16.68;43.88;102541.25;5047975;28;20032;-71
2023/05/20 03:11:58;;;;;;;154.35;55.55;;;;;;;16.68;44.30;102547.41;5049310;28;20116;-72
2023/05/20 03:14:24;;;;;;;156.02;55.53;;;;;;;16.67;44.24;102550.06;5050497;28;20075;-72
2023/05/20 03:16:49;;;;;;;157.85;55.63;;;;;;;16.68;44.10;102549.19;5049132;28;20119;-72
2023/05/20 03:19:15;;;;;;;159.38;56.65;;;;;;;16.66;43.86;102546.56;5056961;28;20057;-72
2023/05/20 03:21:40;;;;;;;154.20;56.17;;;;;;;16.67;44.06;102550.91;5030138;28;20021;-71
2023/05/20 03:24:06;;;;;;;165.43;57.10;;;;;;;16.67;43.99;102550.91;5039573;28;20078;-72
2023/05/20 03:26:32;;;;;;;158.93;56.55;;;;;;;16.66;43.90;102546.56;5022386;28;20068;-72
2023/05/20 03:28:58;;;;;;;157.50;56.85;;;;;;;16.67;44.44;102552.69;5018164;28;20032;-72
2023/05/20 03:31:23;;;;;;;167.55;57.13;;;;;;;16.66;44.32;102543.94;5007547;28;20037;-72
2023/05/20 03:33:48;;;;;;;156.48;55.90;;;;;;;16.67;44.41;102543.00;5021715;28;20025;-72
2023/05/20 03:36:13;;;;;;;158.35;56.28;;;;;;;16.67;44.10;102534.22;5032770;28;20032;-72
2023/05/20 03:38:39;;;;;;;157.07;55.95;;;;;;;16.67;44.10;102536.88;5027977;28;20025;-72
2023/05/20 03:41:04;;;;;;;160.43;57.15;;;;;;;16.69;44.19;102535.09;5042825;28;20085;-72
2023/05/20 03:43:30;;;;;;;150.98;54.75;;;;;;;16.69;44.16;102540.38;5051690;28;20074;-72
2023/05/20 03:45:55;;;;;;;167.00;57.05;;;;;;;16.69;44.28;102537.75;5019580;28;20037;-72
2023/05/20 03:48:20;;;;;;;159.20;56.33;;;;;;;16.70;44.20;102543.00;5032333;28;20030;-71
2023/05/20 03:50:46;;;;;;;170.40;58.38;;;;;;;16.71;43.92;102541.22;5032502;28;20404;-71
2023/05/20 03:53:11;;;;;;;157.93;56.22;;;;;;;16.70;44.18;102535.06;5012558;28;20112;-71
2023/05/20 03:55:37;;;;;;;160.85;56.63;;;;;;;16.72;43.68;102535.06;5019359;28;20062;-72
2023/05/20 03:58:02;;;;;;;159.00;55.92;;;;;;;16.72;43.97;102535.91;5032881;28;20033;-72
2023/05/20 04:00:30;;;;;;;160.13;56.17;;;;;;;16.75;44.10;102544.69;5039260;28;20024;-72
2023/05/20 04:02:55;;;;;;;162.02;56.50;;;;;;;16.77;43.84;102540.25;5032861;28;20017;-72
2023/05/20 04:05:22;;;;;;;158.93;56.22;;;;;;;16.78;43.83;102542.88;5044926;28;20447;-70
2023/05/20 04:07:48;;;;;;;159.88;56.55;;;;;;;16.78;44.26;102548.16;5032045;28;20025;-72
2023/05/20 04:10:13;;;;;;;198.55;61.78;;;;;;;16.80;43.85;102545.53;5030033;28;20071;-71
2023/05/20 04:12:39;;;;;;;170.40;58.42;;;;;;;16.81;43.77;102547.25;5019216;28;20565;-71
2023/05/20 04:15:05;;;;;;;160.52;56.20;;;;;;;16.82;43.85;102541.09;5030269;28;20108;-72
2023/05/20 04:17:30;;;;;;;170.48;57.67;;;;;;;16.84;43.67;102541.94;5014993;28;20067;-72
2023/05/20 04:19:58;;;;;;;162.13;57.05;;;;;;;16.83;43.84;102550.75;5007691;28;20478;-71
2023/05/20 04:22:24;;;;;;;157.40;55.67;;;;;;;16.85;43.96;102551.59;5049810;28;20528;-72
2023/05/20 04:24:49;;;;;;;150.77;55.58;;;;;;;16.84;44.17;102541.94;5017583;28;20045;-72
2023/05/20 04:27:15;;;;;;;166.05;56.97;;;;;;;16.85;44.26;102543.66;5011452;28;20028;-71
2023/05/20 04:29:44;;;;;;;166.13;57.50;;;;;;;16.85;43.64;102543.66;5048382;28;20039;-72
2023/05/20 04:32:12;;;;;;;161.73;57.42;;;;;;;16.85;44.17;102543.66;5026358;28;20070;-71
2023/05/20 04:34:37;;;;;;;158.23;56.33;;;;;;;16.86;44.16;102551.56;5045459;28;20052;-72
2023/05/20 04:37:03;;;;;;;159.48;56.72;;;;;;;16.87;44.33;102547.19;5031807;28;20519;-71
2023/05/20 04:39:28;;;;;;;164.23;56.88;;;;;;;16.87;44.09;102541.91;5035245;28;20033;-72
2023/05/20 04:41:54;;;;;;;156.95;56.03;;;;;;;16.87;43.69;102541.91;5035639;28;20028;-71
2023/05/20 04:44:19;;;;;;;174.18;59.15;;;;;;;16.87;44.13;102541.91;5035981;28;20119;-72
2023/05/20 04:46:45;;;;;;;158.15;55.80;;;;;;;16.88;43.85;102538.38;5026770;28;20025;-72
2023/05/20 04:49:10;;;;;;;159.35;56.53;;;;;;;16.90;43.69;102533.97;5032229;28;20482;-72
2023/05/20 04:51:36;;;;;;;151.68;55.00;;;;;;;16.90;43.77;102536.59;5029483;28;20671;-71
2023/05/20 04:54:01;;;;;;;160.82;57.05;;;;;;;16.91;43.90;102533.06;5019040;28;20037;-72
2023/05/20 04:56:26;;;;;;;159.32;56.33;;;;;;;16.93;44.35;102531.28;5035361;28;20107;-72
2023/05/20 04:58:52;;;;;;;163.27;57.83;;;;;;;16.94;43.72;102530.38;5029865;28;20101;-72
2023/05/20 05:01:17;;;;;;;159.60;56.00;;;;;;;16.95;43.76;102534.78;5035693;28;20051;-71
2023/05/20 05:03:43;;;;;;;172.93;58.88;;;;;;;16.97;43.59;102532.97;5034123;28;20029;-71
2023/05/20 05:06:08;;;;;;;159.57;57.88;;;;;;;17.00;43.68;102532.06;5040063;28;20021;-72
2023/05/20 05:08:33;;;;;;;159.40;55.85;;;;;;;17.00;44.01;102535.59;5053611;28;20470;-71
2023/05/20 05:10:59;;;;;;;159.00;56.42;;;;;;;17.01;43.77;102536.47;5051892;28;20095;-72
2023/05/20 05:13:24;;;;;;;160.57;56.92;;;;;;;17.02;43.55;102528.50;5051401;28;20059;-71
2023/05/20 05:15:57;;;;;;;158.45;56.17;;;;;;;17.04;43.88;102533.78;5034807;28;20067;-71
2023/05/20 05:18:22;;;;;;;158.80;56.35;;;;;;;17.06;43.89;102532.84;5025502;28;20060;-71
2023/05/20 05:20:48;;;;;;;158.48;56.03;;;;;;;17.09;43.63;102536.38;5051943;28;20122;-72
2023/05/20 05:23:13;;;;;;;159.05;56.42;;;;;;;17.09;43.25;102533.72;5052924;28;20017;-71
2023/05/20 05:25:38;;;;;;;167.10;59.00;;;;;;;17.09;44.04;102537.22;5034010;28;20025;-71
2023/05/20 05:28:04;;;;;;;165.77;57.95;;;;;;;17.12;43.90;102536.31;5034588;28;20319;-72
2023/05/20 05:30:29;;;;;;;162.48;58.00;;;;;;;17.13;43.48;102535.44;5033112;28;20448;-71
2023/05/20 05:32:54;;;;;;;164.20;58.33;;;;;;;17.15;43.15;102547.72;5034224;28;20091;-72
2023/05/20 05:35:20;;;;;;;160.90;58.30;;;;;;;17.15;43.25;102538.91;5016647;28;20021;-71
2023/05/20 05:37:45;;;;;;;166.13;58.35;;;;;;;17.18;43.81;102544.16;5032566;28;20025;-72
2023/05/20 05:40:11;;;;;;;161.40;58.38;;;;;;;17.18;43.73;102547.66;5051406;28;20190;-72
2023/05/20 05:42:36;;;;;;;165.55;59.45;;;;;;;17.20;43.57;102545.00;5032912;28;20043;-71
2023/05/20 05:45:02;;;;;;;155.07;57.78;;;;;;;17.22;43.67;102544.06;5052209;28;20028;-72
2023/05/20 05:47:31;;;;;;;177.68;61.28;;;;;;;17.25;43.62;102543.16;5049184;28;20478;-72
2023/05/20 05:49:56;;;;;;;163.70;59.17;;;;;;;17.28;43.09;102540.47;5034310;28;20382;-71
2023/05/20 05:52:22;;;;;;;159.43;57.95;;;;;;;17.30;43.82;102541.34;5033539;28;20025;-72
2023/05/20 05:54:47;;;;;;;169.15;60.55;;;;;;;17.32;43.11;102536.03;5031448;28;20025;-72
2023/05/20 05:57:13;;;;;;;167.50;60.72;;;;;;;17.32;43.38;102539.53;5033994;28;20037;-72
2023/05/20 05:59:38;;;;;;;162.38;59.33;;;;;;;17.35;43.56;102530.69;5051900;28;20021;-72
2023/05/20 06:02:03;;;;;;;164.60;59.95;;;;;;;17.36;43.20;102535.94;5050570;28;20032;-72
2023/05/20 06:04:29;;;;;;;164.88;59.45;;;;;;;17.38;43.19;102544.72;5025625;28;20116;-72
2023/05/20 06:06:54;;;;;;;164.10;60.25;;;;;;;17.42;43.10;102542.03;5033424;28;20048;-71
2023/05/20 06:09:19;;;;;;;168.25;61.47;;;;;;;17.51;43.52;102531.31;5051672;28;20021;-71
2023/05/20 06:11:45;;;;;;;163.32;60.00;;;;;;;17.74;42.96;102534.44;5033547;28;20043;-71
2023/05/20 06:14:10;;;;;;;191.25;64.28;;;;;;;18.08;41.62;102530.38;5025357;28;20112;-72
2023/05/20 06:16:35;;;;;;;160.25;60.22;;;;;;;18.41;40.46;102527.97;5010151;28;20021;-72
2023/05/20 06:19:01;;;;;;;160.55;60.75;;;;;;;18.67;39.69;102527.41;5014314;28;20021;-71
2023/05/20 06:21:26;;;;;;;162.77;61.42;;;;;;;18.90;39.91;102536.69;5032779;28;20124;-72
2023/05/20 06:23:51;;;;;;;167.85;62.17;;;;;;;19.06;38.93;102527.50;5049439;28;20097;-72
2023/05/20 06:26:17;;;;;;;170.32;62.20;;;;;;;19.22;38.72;102527.13;5033076;28;20090;-71
2023/05/20 06:28:42;;;;;;;165.15;60.58;;;;;;;19.34;38.27;102516.22;5028689;28;20098;-71
2023/05/20 06:31:07;;;;;;;162.80;61.50;;;;;;;19.45;38.23;102515.13;5033820;28;20116;-72
2023/05/20 06:33:33;;;;;;;164.48;62.08;;;;;;;19.51;38.07;102514.94;5016293;28;20116;-71
2023/05/20 06:36:00;;;;;;;168.07;61.63;;;;;;;19.57;38.19;102512.16;5030486;28;20029;-72
2023/05/20 06:38:26;;;;;;;167.60;63.15;;;;;;;19.63;37.75;102511.97;5016869;28;20624;-72
2023/05/20 06:40:51;;;;;;;162.82;61.05;;;;;;;19.70;37.45;102513.59;5033255;28;20033;-72
2023/05/20 06:43:17;;;;;;;168.45;61.55;;;;;;;19.80;37.90;102508.06;5031154;28;20123;-72
2023/05/20 06:45:43;;;;;;;166.55;62.05;;;;;;;19.89;37.43;102513.13;5015473;28;20013;-72
2023/05/20 06:48:08;;;;;;;166.45;62.35;;;;;;;19.96;37.31;102509.41;5049806;28;20029;-72
2023/05/20 06:50:33;;;;;;;165.32;62.28;;;;;;;20.03;37.24;102500.38;5032569;28;20442;-72
2023/05/20 06:53:00;;;;;;;167.95;63.28;;;;;;;20.10;37.30;102501.94;5015974;28;20524;-72
2023/05/20 06:55:25;;;;;;;161.02;62.03;;;;;;;20.18;36.98;102503.50;5031617;28;20032;-71
2023/05/20 06:57:50;;;;;;;163.13;61.25;;;;;;;20.19;36.86;102497.28;5014410;28;20398;-72
2023/05/20 07:00:16;;;;;;;167.38;63.47;;;;;;;20.20;36.79;102494.56;5050956;28;20603;-72
2023/05/20 07:02:42;;;;;;;160.48;61.03;;;;;;;20.23;36.91;102486.56;5033401;28;20473;-72
2023/05/20 07:05:08;;;;;;;164.65;61.13;;;;;;;20.26;36.72;102480.28;5024709;28;20028;-72
2023/05/20 07:07:33;;;;;;;160.85;60.95;;;;;;;20.29;36.60;102480.19;5033173;28;20040;-72
2023/05/20 07:09:58;;;;;;;164.20;60.90;;;;;;;20.29;36.64;102479.31;5014427;28;20478;-72
2023/05/20 07:12:24;;;;;;;155.32;61.05;;;;;;;20.30;36.63;102481.94;5047097;28;20067;-72
2023/05/20 07:14:49;;;;;;;170.00;62.00;;;;;;;20.29;36.53;102485.50;5032249;28;20025;-72
2023/05/20 07:17:15;;;;;;;242.20;87.43;;;;;;;20.28;36.74;102478.44;5034798;22;20246;-70
2023/05/20 07:19:40;;;;;;;159.85;61.20;;;;;;;20.26;36.70;102485.59;5040627;28;20029;-71
2023/05/20 07:22:06;;;;;;;171.38;81.75;;;;;;;20.26;36.53;102485.59;5033726;28;20040;-72
2023/05/20 07:24:31;;;;;;;161.25;66.65;;;;;;;20.23;36.80;102493.63;5036619;28;20020;-72
2023/05/20 07:26:57;;;;;;;171.18;66.82;;;;;;;20.22;37.07;102499.84;5033899;28;20029;-71
2023/05/20 07:29:22;;;;;;;161.98;65.32;;;;;;;20.21;36.90;102498.13;5037640;28;20387;-71
2023/05/20 07:31:47;;;;;;;168.35;64.85;;;;;;;20.20;37.09;102491.06;5048330;28;20025;-71
2023/05/20 07:34:13;;;;;;;182.50;69.65;;;;;;;20.18;36.61;102490.22;5049439;28;20057;-72
2023/05/20 07:36:38;;;;;;;169.32;64.78;;;;;;;20.19;37.26;102484.00;5049125;28;20029;-71
2023/05/20 07:39:03;;;;;;;162.75;61.75;;;;;;;20.19;37.13;102489.31;5040752;28;20030;-71
2023/05/20 07:41:29;;;;;;;157.93;62.55;;;;;;;20.21;37.00;102480.41;5027568;28;20017;-72
2023/05/20 07:43:54;;;;;;;169.55;72.68;;;;;;;20.21;37.05;102477.75;5049385;28;20082;-71
2023/05/20 07:46:20;;;;;;;174.32;67.32;;;;;;;20.23;37.27;102478.59;5050609;28;20024;-72
2023/05/20 07:48:45;;;;;;;155.77;63.80;;;;;;;20.23;36.91;102480.34;5029942;28;20041;-71
2023/05/20 07:51:11;;;;;;;166.88;68.13;;;;;;;20.22;37.14;102482.16;5030056;28;20483;-71
2023/05/20 07:53:36;;;;;;;182.13;71.18;;;;;;;20.22;37.30;102478.59;5023484;28;20025;-71
2023/05/20 07:56:01;;;;;;;167.38;67.70;;;;;;;20.20;37.19;102470.69;5049371;28;20124;-72
2023/05/20 07:58:27;;;;;;;182.77;68.15;;;;;;;20.22;37.43;102470.66;5040389;28;20039;-71
2023/05/20 08:00:53;;;;;;;169.73;64.60;;;;;;;20.25;37.36;102489.16;5043735;28;20020;-71
2023/05/20 08:03:18;;;;;;;159.75;62.80;;;;;;;20.28;37.47;102481.09;5053030;28;20021;-72
2023/05/20 08:05:43;;;;;;;166.98;63.22;;;;;;;20.29;37.14;102480.19;5052271;28;20063;-71
2023/05/20 08:08:09;;;;;;;165.80;67.05;;;;;;;20.32;37.01;102485.41;5053009;28;20017;-72
2023/05/20 08:10:35;;;;;;;184.95;65.45;;;;;;;20.32;37.46;102480.09;5030759;28;20112;-71
2023/05/20 08:13:00;;;;;;;180.65;76.90;;;;;;;20.32;37.27;102474.78;5052090;28;20025;-71
2023/05/20 08:15:26;;;;;;;172.30;65.03;;;;;;;20.29;37.00;102479.31;5052445;28;20039;-71
2023/05/20 08:17:51;;;;;;;173.48;63.72;;;;;;;20.26;37.27;102480.28;5052392;28;20036;-71
2023/05/20 08:20:17;;;;;;;162.10;62.50;;;;;;;20.24;37.31;102477.66;5053844;28;20032;-71
2023/05/20 08:22:42;;;;;;;163.65;62.03;;;;;;;20.22;37.10;102473.31;5037912;28;20606;-72
2023/05/20 08:25:08;;;;;;;166.70;71.70;;;;;;;20.20;37.52;102467.19;5048580;28;20074;-72
2023/05/20 08:27:35;;;;;;;168.65;62.97;;;;;;;20.21;37.15;102461.84;5032917;28;20079;-72
2023/05/20 08:30:01;;;;;;;166.93;64.20;;;;;;;20.24;37.16;102459.09;5027667;28;20025;-71
2023/05/20 08:32:26;;;;;;;171.80;68.03;;;;;;;20.25;37.65;102457.31;5047191;28;20032;-72
2023/05/20 08:34:51;;;;;;;166.98;62.72;;;;;;;20.30;37.63;102467.78;5053070;28;20025;-71
2023/05/20 08:37:17;;;;;;;164.10;64.90;;;;;;;20.29;37.12;102456.31;5053273;28;20485;-71
2023/05/20 08:39:43;;;;;;;167.60;69.30;;;;;;;20.33;37.33;102449.13;5048317;28;20055;-71
2023/05/20 08:42:10;;;;;;;169.25;70.03;;;;;;;20.35;36.78;102448.16;5041635;28;20025;-72
2023/05/20 08:44:35;;;;;;;169.05;68.82;;;;;;;20.36;37.13;102449.91;5049527;28;20021;-72
2023/05/20 08:47:02;;;;;;;169.32;68.05;;;;;;;20.38;37.14;102448.09;5052446;28;20031;-71
2023/05/20 08:49:28;;;;;;;166.73;64.03;;;;;;;20.38;36.94;102445.44;5050509;28;20127;-71
2023/05/20 08:51:53;;;;;;;166.23;63.83;;;;;;;20.38;37.05;102445.44;5044024;28;20108;-71
2023/05/20 08:54:22;;;;;;;169.10;63.58;;;;;;;20.40;36.92;102440.09;5052474;28;20047;-71
2023/05/20 08:56:48;;;;;;;167.10;66.60;;;;;;;20.39;36.99;102439.19;5051256;28;20035;-71
2023/05/20 08:59:13;;;;;;;170.93;65.32;;;;;;;20.33;37.26;102449.13;5051280;28;20025;-72
2023/05/20 09:01:42;;;;;;;167.35;67.53;;;;;;;20.24;37.57;102447.63;5050017;28;20048;-71
2023/05/20 09:04:07;;;;;;;175.57;63.97;;;;;;;20.19;37.49;102444.22;5035393;28;20029;-71
2023/05/20 09:06:44;;;;;;;167.23;65.82;;;;;;;20.18;37.85;102439.81;5051448;28;20017;-71
2023/05/20 09:09:13;;;;;;;167.02;62.42;;;;;;;20.16;37.78;102437.22;5051898;28;20036;-70
2023/05/20 09:11:40;;;;;;;162.15;61.35;;;;;;;20.16;37.59;102442.53;5047655;28;20482;-70
2023/05/20 09:14:05;;;;;;;171.45;63.20;;;;;;;20.08;37.70;102440.09;5047101;28;20045;-70
2023/05/20 09:16:31;;;;;;;179.30;64.88;;;;;;;20.04;37.62;102435.81;5051441;28;20513;-70
2023/05/20 09:18:56;;;;;;;163.15;61.90;;;;;;;20.02;37.96;102440.28;5052712;28;20402;-70
2023/05/20 09:21:26;;;;;;;176.50;63.90;;;;;;;20.02;38.08;102437.63;5050823;28;20482;-70
2023/05/20 09:23:52;;;;;;;173.43;65.10;;;;;;;19.96;37.78;102427.19;5024716;28;20029;-71
2023/05/20 09:26:18;;;;;;;165.57;63.58;;;;;;;19.88;37.69;102426.56;5040703;28;20031;-70
2023/05/20 09:28:43;;;;;;;166.85;62.00;;;;;;;19.88;37.93;102426.56;5051376;28;20488;-70
2023/05/20 09:31:08;;;;;;;170.77;63.10;;;;;;;19.88;37.99;102421.25;5019844;28;20033;-70
2023/05/20 09:33:36;;;;;;;171.00;62.55;;;;;;;19.88;38.25;102427.41;5029490;28;20029;-70
2023/05/20 09:36:07;;;;;;;166.32;62.47;;;;;;;19.88;37.88;102426.56;5049555;28;20541;-70
2023/05/20 09:38:36;;;;;;;170.30;62.85;;;;;;;19.89;37.80;102417.66;5051599;28;20745;-70
2023/05/20 09:41:12;;;;;;;163.50;62.08;;;;;;;19.91;37.90;102421.16;5050802;28;20575;-71
2023/05/20 09:43:39;;;;;;;165.10;61.78;;;;;;;19.88;38.48;102418.59;5034378;28;20033;-71
2023/05/20 09:46:04;;;;;;;158.25;61.40;;;;;;;19.76;37.85;102407.38;5050998;28;20040;-71
2023/05/20 09:48:30;;;;;;;163.77;61.58;;;;;;;19.69;38.39;102410.25;5051028;28;20017;-71
2023/05/20 09:50:56;;;;;;;166.18;62.05;;;;;;;19.61;39.03;102405.16;5051090;28;20478;-71
2023/05/20 09:53:26;;;;;;;174.70;64.07;;;;;;;19.54;38.76;102411.53;5047387;28;20021;-71
2023/05/20 09:55:52;;;;;;;168.02;63.30;;;;;;;19.46;38.66;102408.22;5036923;28;20507;-71
2023/05/20 09:58:19;;;;;;;164.80;62.28;;;;;;;19.36;39.13;102408.44;5052397;28;20104;-71
2023/05/20 10:00:45;;;;;;;170.38;63.67;;;;;;;19.33;38.73;102407.66;5033840;28;20028;-71
2023/05/20 10:03:11;;;;;;;169.27;65.18;;;;;;;19.32;39.12;102409.44;5042819;28;20110;-71
2023/05/20 10:05:40;;;;;;;168.75;66.70;;;;;;;19.32;39.05;102411.19;5047320;28;20486;-72
2023/05/20 10:08:31;;;;;;;167.23;62.92;;;;;;;19.31;39.01;102407.69;5051064;28;20482;-69
2023/05/20 10:11:11;;;;;;;171.20;62.50;;;;;;;19.29;39.62;102398.91;5033380;28;20056;-72
2023/05/20 10:14:08;;;;;;;172.68;65.55;;;;;;;19.24;39.62;102406.13;5043993;28;20386;-71
2023/05/20 10:16:45;;;;;;;167.00;67.20;;;;;;;19.25;39.68;102402.53;5023782;28;20031;-71
2023/05/20 10:19:16;;;;;;;169.82;72.53;;;;;;;19.24;39.50;102403.47;5050868;28;20024;-71
2023/05/20 10:21:41;;;;;;;165.43;64.15;;;;;;;19.20;39.26;102391.22;5051636;28;20032;-71
2023/05/20 10:24:08;;;;;;;181.25;74.68;;;;;;;19.17;39.59;102383.31;5050647;28;20025;-72
2023/05/20 10:26:38;;;;;;;166.68;71.85;;;;;;;19.14;39.30;102379.00;5025895;28;20033;-71
2023/05/20 10:29:16;;;;;;;167.20;64.03;;;;;;;19.11;39.70;102378.19;5033480;28;20017;-71
2023/05/20 10:31:50;;;;;;;164.27;61.88;;;;;;;19.08;39.85;102372.06;5049809;28;20543;-71
2023/05/20 10:34:19;;;;;;;176.75;63.78;;;;;;;19.11;39.72;102380.84;5034090;28;20021;-71
2023/05/20 10:36:54;;;;;;;165.30;62.28;;;;;;;19.13;39.16;102384.31;5045975;28;20504;-71
2023/05/20 10:39:32;;;;;;;169.18;64.13;;;;;;;19.14;39.40;102376.34;5050539;28;20146;-72
2023/05/20 10:42:08;;;;;;;164.80;63.85;;;;;;;19.14;39.30;102372.81;5049802;28;20060;-71
2023/05/20 10:44:41;;;;;;;160.82;63.72;;;;;;;19.14;39.44;102370.16;5050548;28;20032;-72
2023/05/20 10:47:06;;;;;;;176.55;65.30;;;;;;;19.15;39.56;102371.91;5043863;28;20112;-70
2023/05/20 10:49:35;;;;;;;167.27;64.13;;;;;;;19.15;39.79;102366.63;5047617;28;20536;-71
2023/05/20 10:52:01;;;;;;;167.48;62.60;;;;;;;19.13;39.55;102363.13;5050218;28;20112;-71
2023/05/20 10:54:27;;;;;;;162.70;61.83;;;;;;;19.11;39.68;102362.31;5049379;28;20539;-71
2023/05/20 10:56:53;;;;;;;170.52;63.38;;;;;;;19.08;39.56;102350.88;5047506;28;20037;-71
2023/05/20 10:59:20;;;;;;;165.57;62.80;;;;;;;19.07;39.47;102350.91;5039253;28;20062;-71